sensor_id;sensor_type;location;lat;lon;timestamp;P1;durP1;ratioP1;P2;durP2;ratioP2
9222;SDS011;7557;51.698;3.942;2022-12-18T00:01:13;65.83;;;32.33;;
9222;SDS011;7557;51.698;3.942;2022-12-18T00:03:42;60.97;;;29.30;;
9222;SDS011;7557;51.698;3.942;2022-12-18T00:06:10;62.73;;;28.10;;
9222;SDS011;7557;51.698;3.942;2022-12-18T00:08:39;65.00;;;31.97;;
9222;SDS011;7557;51.698;3.942;2022-12-18T00:11:07;67.53;;;33.90;;
9222;SDS011;7557;51.698;3.942;2022-12-18T00:13:35;63.30;;;30.67;;
9222;SDS011;7557;51.698;3.942;2022-12-18T00:16:03;55.90;;;27.67;;
9222;SDS011;7557;51.698;3.942;2022-12-18T00:18:34;55.47;;;29.30;;
9222;SDS011;7557;51.698;3.942;2022-12-18T00:21:02;59.83;;;30.23;;
9222;SDS011;7557;51.698;3.942;2022-12-18T00:23:33;58.77;;;30.03;;
9222;SDS011;7557;51.698;3.942;2022-12-18T00:26:01;64.10;;;30.40;;
9222;SDS011;7557;51.698;3.942;2022-12-18T00:28:30;60.53;;;30.83;;
9222;SDS011;7557;51.698;3.942;2022-12-18T00:31:01;64.17;;;30.37;;
9222;SDS011;7557;51.698;3.942;2022-12-18T00:33:31;60.77;;;30.03;;
9222;SDS011;7557;51.698;3.942;2022-12-18T00:36:00;60.73;;;31.67;;
9222;SDS011;7557;51.698;3.942;2022-12-18T00:38:28;57.97;;;29.60;;
9222;SDS011;7557;51.698;3.942;2022-12-18T00:40:55;61.13;;;30.30;;
9222;SDS011;7557;51.698;3.942;2022-12-18T00:43:23;66.80;;;31.70;;
9222;SDS011;7557;51.698;3.942;2022-12-18T00:45:49;58.77;;;29.27;;
9222;SDS011;7557;51.698;3.942;2022-12-18T00:48:17;66.17;;;33.03;;
9222;SDS011;7557;51.698;3.942;2022-12-18T00:50:46;58.30;;;28.67;;
9222;SDS011;7557;51.698;3.942;2022-12-18T00:53:17;65.53;;;31.70;;
9222;SDS011;7557;51.698;3.942;2022-12-18T00:55:45;59.20;;;28.77;;
9222;SDS011;7557;51.698;3.942;2022-12-18T00:58:13;73.10;;;31.57;;
9222;SDS011;7557;51.698;3.942;2022-12-18T01:00:42;70.27;;;32.37;;
9222;SDS011;7557;51.698;3.942;2022-12-18T01:03:10;61.47;;;30.33;;
9222;SDS011;7557;51.698;3.942;2022-12-18T01:05:40;55.30;;;27.63;;
9222;SDS011;7557;51.698;3.942;2022-12-18T01:08:09;62.20;;;30.27;;
9222;SDS011;7557;51.698;3.942;2022-12-18T01:10:39;58.73;;;31.37;;
9222;SDS011;7557;51.698;3.942;2022-12-18T01:13:09;49.30;;;27.80;;
9222;SDS011;7557;51.698;3.942;2022-12-18T01:15:37;49.00;;;27.60;;
9222;SDS011;7557;51.698;3.942;2022-12-18T01:18:05;49.90;;;28.43;;
9222;SDS011;7557;51.698;3.942;2022-12-18T01:20:32;51.03;;;27.57;;
9222;SDS011;7557;51.698;3.942;2022-12-18T01:23:04;49.57;;;26.47;;
9222;SDS011;7557;51.698;3.942;2022-12-18T01:25:33;56.00;;;28.23;;
9222;SDS011;7557;51.698;3.942;2022-12-18T01:28:03;56.87;;;27.37;;
9222;SDS011;7557;51.698;3.942;2022-12-18T01:30:30;48.60;;;28.10;;
9222;SDS011;7557;51.698;3.942;2022-12-18T01:32:58;48.23;;;27.63;;
9222;SDS011;7557;51.698;3.942;2022-12-18T01:35:25;41.87;;;24.60;;
9222;SDS011;7557;51.698;3.942;2022-12-18T01:37:53;47.93;;;25.90;;
9222;SDS011;7557;51.698;3.942;2022-12-18T01:40:21;45.03;;;26.23;;
9222;SDS011;7557;51.698;3.942;2022-12-18T01:42:51;51.60;;;27.00;;
9222;SDS011;7557;51.698;3.942;2022-12-18T01:45:23;51.47;;;26.63;;
9222;SDS011;7557;51.698;3.942;2022-12-18T01:47:54;43.37;;;24.33;;
9222;SDS011;7557;51.698;3.942;2022-12-18T01:50:24;49.90;;;27.83;;
9222;SDS011;7557;51.698;3.942;2022-12-18T01:52:56;46.33;;;25.27;;
9222;SDS011;7557;51.698;3.942;2022-12-18T01:55:27;47.13;;;26.53;;
9222;SDS011;7557;51.698;3.942;2022-12-18T01:57:59;44.03;;;24.57;;
9222;SDS011;7557;51.698;3.942;2022-12-18T02:00:27;47.80;;;25.20;;
9222;SDS011;7557;51.698;3.942;2022-12-18T02:02:55;46.47;;;25.77;;
9222;SDS011;7557;51.698;3.942;2022-12-18T02:05:24;40.87;;;22.90;;
9222;SDS011;7557;51.698;3.942;2022-12-18T02:08:00;43.07;;;24.17;;
9222;SDS011;7557;51.698;3.942;2022-12-18T02:10:36;39.17;;;23.67;;
9222;SDS011;7557;51.698;3.942;2022-12-18T02:13:14;45.17;;;24.00;;
9222;SDS011;7557;51.698;3.942;2022-12-18T02:15:49;44.80;;;25.07;;
9222;SDS011;7557;51.698;3.942;2022-12-18T02:18:24;46.27;;;25.97;;
9222;SDS011;7557;51.698;3.942;2022-12-18T02:20:55;49.03;;;23.90;;
9222;SDS011;7557;51.698;3.942;2022-12-18T02:23:37;44.37;;;23.60;;
9222;SDS011;7557;51.698;3.942;2022-12-18T02:26:19;51.30;;;27.00;;
9222;SDS011;7557;51.698;3.942;2022-12-18T02:28:51;50.20;;;26.73;;
9222;SDS011;7557;51.698;3.942;2022-12-18T02:31:23;51.60;;;26.20;;
9222;SDS011;7557;51.698;3.942;2022-12-18T02:33:53;53.97;;;26.97;;
9222;SDS011;7557;51.698;3.942;2022-12-18T02:36:25;51.43;;;25.40;;
9222;SDS011;7557;51.698;3.942;2022-12-18T02:38:55;55.97;;;27.97;;
9222;SDS011;7557;51.698;3.942;2022-12-18T02:41:26;57.30;;;27.47;;
9222;SDS011;7557;51.698;3.942;2022-12-18T02:43:56;48.50;;;26.00;;
9222;SDS011;7557;51.698;3.942;2022-12-18T02:46:27;51.33;;;27.07;;
9222;SDS011;7557;51.698;3.942;2022-12-18T02:48:59;54.90;;;26.93;;
9222;SDS011;7557;51.698;3.942;2022-12-18T02:51:34;48.93;;;26.47;;
9222;SDS011;7557;51.698;3.942;2022-12-18T02:54:15;51.30;;;25.30;;
9222;SDS011;7557;51.698;3.942;2022-12-18T02:56:51;59.00;;;27.20;;
9222;SDS011;7557;51.698;3.942;2022-12-18T02:59:23;48.90;;;25.53;;
9222;SDS011;7557;51.698;3.942;2022-12-18T03:01:59;49.00;;;24.60;;
9222;SDS011;7557;51.698;3.942;2022-12-18T03:04:32;50.53;;;25.70;;
9222;SDS011;7557;51.698;3.942;2022-12-18T03:07:08;52.73;;;25.93;;
9222;SDS011;7557;51.698;3.942;2022-12-18T03:09:42;54.70;;;26.57;;
9222;SDS011;7557;51.698;3.942;2022-12-18T03:12:15;53.17;;;27.00;;
9222;SDS011;7557;51.698;3.942;2022-12-18T03:14:49;49.83;;;26.30;;
9222;SDS011;7557;51.698;3.942;2022-12-18T03:17:20;42.13;;;23.73;;
9222;SDS011;7557;51.698;3.942;2022-12-18T03:19:51;49.87;;;26.33;;
9222;SDS011;7557;51.698;3.942;2022-12-18T03:22:23;44.80;;;24.03;;
9222;SDS011;7557;51.698;3.942;2022-12-18T03:24:53;46.13;;;24.23;;
9222;SDS011;7557;51.698;3.942;2022-12-18T03:27:23;47.10;;;24.27;;
9222;SDS011;7557;51.698;3.942;2022-12-18T03:29:54;44.53;;;23.80;;
9222;SDS011;7557;51.698;3.942;2022-12-18T03:32:33;47.50;;;24.20;;
9222;SDS011;7557;51.698;3.942;2022-12-18T03:35:07;51.73;;;25.63;;
9222;SDS011;7557;51.698;3.942;2022-12-18T03:37:37;44.30;;;24.27;;
9222;SDS011;7557;51.698;3.942;2022-12-18T03:40:05;47.17;;;25.53;;
9222;SDS011;7557;51.698;3.942;2022-12-18T03:42:37;51.20;;;24.13;;
9222;SDS011;7557;51.698;3.942;2022-12-18T03:45:12;44.03;;;24.17;;
9222;SDS011;7557;51.698;3.942;2022-12-18T03:47:47;44.20;;;23.47;;
9222;SDS011;7557;51.698;3.942;2022-12-18T03:50:34;42.33;;;23.23;;
9222;SDS011;7557;51.698;3.942;2022-12-18T03:53:11;44.40;;;23.03;;
9222;SDS011;7557;51.698;3.942;2022-12-18T03:55:45;44.23;;;25.10;;
9222;SDS011;7557;51.698;3.942;2022-12-18T03:58:16;38.67;;;22.00;;
9222;SDS011;7557;51.698;3.942;2022-12-18T04:00:46;45.20;;;23.80;;
9222;SDS011;7557;51.698;3.942;2022-12-18T04:03:16;46.63;;;24.47;;
9222;SDS011;7557;51.698;3.942;2022-12-18T04:05:45;47.53;;;24.93;;
9222;SDS011;7557;51.698;3.942;2022-12-18T04:08:16;50.03;;;24.07;;
9222;SDS011;7557;51.698;3.942;2022-12-18T04:10:44;49.73;;;25.03;;
9222;SDS011;7557;51.698;3.942;2022-12-18T04:13:12;41.87;;;23.47;;
9222;SDS011;7557;51.698;3.942;2022-12-18T04:15:49;49.90;;;23.57;;
9222;SDS011;7557;51.698;3.942;2022-12-18T04:18:16;49.00;;;23.33;;
9222;SDS011;7557;51.698;3.942;2022-12-18T04:20:44;44.63;;;22.43;;
9222;SDS011;7557;51.698;3.942;2022-12-18T04:23:11;39.40;;;21.57;;
9222;SDS011;7557;51.698;3.942;2022-12-18T04:25:39;48.20;;;23.87;;
9222;SDS011;7557;51.698;3.942;2022-12-18T04:28:06;44.97;;;22.30;;
9222;SDS011;7557;51.698;3.942;2022-12-18T04:30:34;42.10;;;21.67;;
9222;SDS011;7557;51.698;3.942;2022-12-18T04:33:03;41.47;;;20.47;;
9222;SDS011;7557;51.698;3.942;2022-12-18T04:35:31;37.97;;;20.73;;
9222;SDS011;7557;51.698;3.942;2022-12-18T04:37:58;43.03;;;22.53;;
9222;SDS011;7557;51.698;3.942;2022-12-18T04:40:25;41.60;;;22.03;;
9222;SDS011;7557;51.698;3.942;2022-12-18T04:42:53;43.20;;;22.90;;
9222;SDS011;7557;51.698;3.942;2022-12-18T04:45:20;42.50;;;21.73;;
9222;SDS011;7557;51.698;3.942;2022-12-18T04:47:47;40.57;;;21.37;;
9222;SDS011;7557;51.698;3.942;2022-12-18T04:50:17;43.13;;;21.83;;
9222;SDS011;7557;51.698;3.942;2022-12-18T04:52:44;40.83;;;21.57;;
9222;SDS011;7557;51.698;3.942;2022-12-18T04:55:12;43.23;;;21.43;;
9222;SDS011;7557;51.698;3.942;2022-12-18T04:57:39;40.77;;;21.03;;
9222;SDS011;7557;51.698;3.942;2022-12-18T05:00:08;40.20;;;21.37;;
9222;SDS011;7557;51.698;3.942;2022-12-18T05:02:36;41.50;;;21.77;;
9222;SDS011;7557;51.698;3.942;2022-12-18T05:05:03;42.83;;;22.87;;
9222;SDS011;7557;51.698;3.942;2022-12-18T05:07:33;45.17;;;22.70;;
9222;SDS011;7557;51.698;3.942;2022-12-18T05:10:00;47.07;;;23.07;;
9222;SDS011;7557;51.698;3.942;2022-12-18T05:12:28;40.63;;;20.60;;
9222;SDS011;7557;51.698;3.942;2022-12-18T05:14:57;44.57;;;22.80;;
9222;SDS011;7557;51.698;3.942;2022-12-18T05:17:24;42.07;;;21.63;;
9222;SDS011;7557;51.698;3.942;2022-12-18T05:19:52;38.57;;;21.67;;
9222;SDS011;7557;51.698;3.942;2022-12-18T05:22:19;40.10;;;20.70;;
9222;SDS011;7557;51.698;3.942;2022-12-18T05:24:48;41.13;;;21.17;;
9222;SDS011;7557;51.698;3.942;2022-12-18T05:27:15;41.17;;;22.30;;
9222;SDS011;7557;51.698;3.942;2022-12-18T05:29:44;42.03;;;21.77;;
9222;SDS011;7557;51.698;3.942;2022-12-18T05:32:11;39.97;;;22.40;;
9222;SDS011;7557;51.698;3.942;2022-12-18T05:34:38;43.83;;;21.97;;
9222;SDS011;7557;51.698;3.942;2022-12-18T05:37:06;36.50;;;21.13;;
9222;SDS011;7557;51.698;3.942;2022-12-18T05:39:33;45.10;;;21.07;;
9222;SDS011;7557;51.698;3.942;2022-12-18T05:42:02;36.07;;;21.33;;
9222;SDS011;7557;51.698;3.942;2022-12-18T05:44:30;43.43;;;22.23;;
9222;SDS011;7557;51.698;3.942;2022-12-18T05:46:57;35.17;;;20.00;;
9222;SDS011;7557;51.698;3.942;2022-12-18T05:49:24;35.33;;;19.60;;
9222;SDS011;7557;51.698;3.942;2022-12-18T05:51:52;33.50;;;19.50;;
9222;SDS011;7557;51.698;3.942;2022-12-18T05:54:19;38.60;;;19.33;;
9222;SDS011;7557;51.698;3.942;2022-12-18T05:56:47;37.43;;;20.90;;
9222;SDS011;7557;51.698;3.942;2022-12-18T05:59:16;39.63;;;21.20;;
9222;SDS011;7557;51.698;3.942;2022-12-18T06:01:43;42.00;;;20.80;;
9222;SDS011;7557;51.698;3.942;2022-12-18T06:04:10;39.67;;;20.27;;
9222;SDS011;7557;51.698;3.942;2022-12-18T06:06:38;36.13;;;20.00;;
9222;SDS011;7557;51.698;3.942;2022-12-18T06:09:05;38.30;;;20.43;;
9222;SDS011;7557;51.698;3.942;2022-12-18T06:11:35;36.10;;;19.67;;
9222;SDS011;7557;51.698;3.942;2022-12-18T06:14:03;35.07;;;18.53;;
9222;SDS011;7557;51.698;3.942;2022-12-18T06:16:33;31.37;;;18.23;;
9222;SDS011;7557;51.698;3.942;2022-12-18T06:19:02;31.47;;;18.00;;
9222;SDS011;7557;51.698;3.942;2022-12-18T06:21:31;31.80;;;19.50;;
9222;SDS011;7557;51.698;3.942;2022-12-18T06:23:59;28.87;;;17.17;;
9222;SDS011;7557;51.698;3.942;2022-12-18T06:26:27;33.50;;;17.93;;
9222;SDS011;7557;51.698;3.942;2022-12-18T06:28:54;35.83;;;18.80;;
9222;SDS011;7557;51.698;3.942;2022-12-18T06:31:22;31.83;;;18.63;;
9222;SDS011;7557;51.698;3.942;2022-12-18T06:33:51;33.53;;;19.07;;
9222;SDS011;7557;51.698;3.942;2022-12-18T06:36:18;35.37;;;18.90;;
9222;SDS011;7557;51.698;3.942;2022-12-18T06:38:46;28.17;;;18.03;;
9222;SDS011;7557;51.698;3.942;2022-12-18T06:41:14;27.53;;;17.53;;
9222;SDS011;7557;51.698;3.942;2022-12-18T06:43:43;31.40;;;18.07;;
9222;SDS011;7557;51.698;3.942;2022-12-18T06:46:11;27.87;;;16.90;;
9222;SDS011;7557;51.698;3.942;2022-12-18T06:48:39;24.60;;;17.40;;
9222;SDS011;7557;51.698;3.942;2022-12-18T06:51:08;24.17;;;14.90;;
9222;SDS011;7557;51.698;3.942;2022-12-18T06:53:35;26.40;;;15.80;;
9222;SDS011;7557;51.698;3.942;2022-12-18T06:56:03;26.50;;;15.97;;
9222;SDS011;7557;51.698;3.942;2022-12-18T06:58:32;23.53;;;15.17;;
9222;SDS011;7557;51.698;3.942;2022-12-18T07:01:00;26.37;;;15.77;;
9222;SDS011;7557;51.698;3.942;2022-12-18T07:03:28;29.90;;;15.40;;
9222;SDS011;7557;51.698;3.942;2022-12-18T07:05:56;24.17;;;14.90;;
9222;SDS011;7557;51.698;3.942;2022-12-18T07:08:25;29.20;;;15.23;;
9222;SDS011;7557;51.698;3.942;2022-12-18T07:10:52;25.80;;;16.00;;
9222;SDS011;7557;51.698;3.942;2022-12-18T07:13:20;26.60;;;17.07;;
9222;SDS011;7557;51.698;3.942;2022-12-18T07:15:48;23.37;;;14.37;;
9222;SDS011;7557;51.698;3.942;2022-12-18T07:18:15;25.33;;;15.80;;
9222;SDS011;7557;51.698;3.942;2022-12-18T07:20:43;26.57;;;15.70;;
9222;SDS011;7557;51.698;3.942;2022-12-18T07:23:10;29.73;;;16.13;;
9222;SDS011;7557;51.698;3.942;2022-12-18T07:25:39;24.93;;;15.30;;
9222;SDS011;7557;51.698;3.942;2022-12-18T07:28:07;28.27;;;16.87;;
9222;SDS011;7557;51.698;3.942;2022-12-18T07:30:36;26.20;;;15.40;;
9222;SDS011;7557;51.698;3.942;2022-12-18T07:33:04;27.07;;;15.27;;
9222;SDS011;7557;51.698;3.942;2022-12-18T07:35:32;23.77;;;15.37;;
9222;SDS011;7557;51.698;3.942;2022-12-18T07:38:00;25.50;;;16.10;;
9222;SDS011;7557;51.698;3.942;2022-12-18T07:40:28;22.87;;;14.70;;
9222;SDS011;7557;51.698;3.942;2022-12-18T07:42:57;24.47;;;15.20;;
9222;SDS011;7557;51.698;3.942;2022-12-18T07:45:24;24.20;;;14.33;;
9222;SDS011;7557;51.698;3.942;2022-12-18T07:47:51;23.50;;;14.07;;
9222;SDS011;7557;51.698;3.942;2022-12-18T07:50:19;24.90;;;14.80;;
9222;SDS011;7557;51.698;3.942;2022-12-18T07:52:46;24.73;;;15.67;;
9222;SDS011;7557;51.698;3.942;2022-12-18T07:55:14;19.43;;;13.93;;
9222;SDS011;7557;51.698;3.942;2022-12-18T07:57:41;21.17;;;13.33;;
9222;SDS011;7557;51.698;3.942;2022-12-18T08:00:11;23.83;;;14.47;;
9222;SDS011;7557;51.698;3.942;2022-12-18T08:02:39;21.57;;;13.60;;
9222;SDS011;7557;51.698;3.942;2022-12-18T08:05:07;21.43;;;13.17;;
9222;SDS011;7557;51.698;3.942;2022-12-18T08:07:35;21.07;;;12.93;;
9222;SDS011;7557;51.698;3.942;2022-12-18T08:10:02;21.13;;;13.57;;
9222;SDS011;7557;51.698;3.942;2022-12-18T08:12:30;18.20;;;11.93;;
9222;SDS011;7557;51.698;3.942;2022-12-18T08:14:58;23.67;;;13.37;;
9222;SDS011;7557;51.698;3.942;2022-12-18T08:17:27;18.37;;;12.70;;
9222;SDS011;7557;51.698;3.942;2022-12-18T08:19:54;21.47;;;13.03;;
9222;SDS011;7557;51.698;3.942;2022-12-18T08:22:22;19.90;;;12.73;;
9222;SDS011;7557;51.698;3.942;2022-12-18T08:24:49;18.67;;;12.30;;
9222;SDS011;7557;51.698;3.942;2022-12-18T08:27:17;19.43;;;12.43;;
9222;SDS011;7557;51.698;3.942;2022-12-18T08:29:44;18.23;;;12.53;;
9222;SDS011;7557;51.698;3.942;2022-12-18T08:32:12;22.47;;;13.20;;
9222;SDS011;7557;51.698;3.942;2022-12-18T08:34:41;19.03;;;12.57;;
9222;SDS011;7557;51.698;3.942;2022-12-18T08:37:08;18.37;;;12.50;;
9222;SDS011;7557;51.698;3.942;2022-12-18T08:39:36;19.13;;;12.33;;
9222;SDS011;7557;51.698;3.942;2022-12-18T08:42:03;17.27;;;11.27;;
9222;SDS011;7557;51.698;3.942;2022-12-18T08:44:48;16.67;;;11.77;;
9222;SDS011;7557;51.698;3.942;2022-12-18T08:47:15;18.13;;;12.37;;
9222;SDS011;7557;51.698;3.942;2022-12-18T08:49:44;16.17;;;11.13;;
9222;SDS011;7557;51.698;3.942;2022-12-18T08:52:12;14.30;;;11.93;;
9222;SDS011;7557;51.698;3.942;2022-12-18T08:54:39;16.37;;;11.67;;
9222;SDS011;7557;51.698;3.942;2022-12-18T08:57:07;15.43;;;11.07;;
9222;SDS011;7557;51.698;3.942;2022-12-18T08:59:34;15.63;;;11.30;;
9222;SDS011;7557;51.698;3.942;2022-12-18T09:02:02;16.63;;;11.07;;
9222;SDS011;7557;51.698;3.942;2022-12-18T09:04:29;16.80;;;11.37;;
9222;SDS011;7557;51.698;3.942;2022-12-18T09:06:58;15.20;;;9.87;;
9222;SDS011;7557;51.698;3.942;2022-12-18T09:09:26;16.93;;;10.53;;
9222;SDS011;7557;51.698;3.942;2022-12-18T09:11:53;16.33;;;10.73;;
9222;SDS011;7557;51.698;3.942;2022-12-18T09:14:21;14.83;;;10.83;;
9222;SDS011;7557;51.698;3.942;2022-12-18T09:16:48;16.77;;;10.27;;
9222;SDS011;7557;51.698;3.942;2022-12-18T09:19:16;15.27;;;11.13;;
9222;SDS011;7557;51.698;3.942;2022-12-18T09:21:43;15.43;;;9.87;;
9222;SDS011;7557;51.698;3.942;2022-12-18T09:24:13;14.30;;;9.63;;
9222;SDS011;7557;51.698;3.942;2022-12-18T09:26:40;13.70;;;9.87;;
9222;SDS011;7557;51.698;3.942;2022-12-18T09:29:08;15.33;;;10.40;;
9222;SDS011;7557;51.698;3.942;2022-12-18T09:31:35;13.03;;;10.03;;
9222;SDS011;7557;51.698;3.942;2022-12-18T09:34:05;13.83;;;10.30;;
9222;SDS011;7557;51.698;3.942;2022-12-18T09:36:33;13.23;;;9.37;;
9222;SDS011;7557;51.698;3.942;2022-12-18T09:39:01;12.90;;;9.40;;
9222;SDS011;7557;51.698;3.942;2022-12-18T09:41:44;14.17;;;9.77;;
9222;SDS011;7557;51.698;3.942;2022-12-18T09:44:22;11.73;;;9.00;;
9222;SDS011;7557;51.698;3.942;2022-12-18T09:47:03;14.30;;;8.93;;
9222;SDS011;7557;51.698;3.942;2022-12-18T09:49:37;12.23;;;8.80;;
9222;SDS011;7557;51.698;3.942;2022-12-18T09:52:09;11.90;;;9.57;;
9222;SDS011;7557;51.698;3.942;2022-12-18T09:54:43;15.40;;;10.47;;
9222;SDS011;7557;51.698;3.942;2022-12-18T09:57:15;13.23;;;9.83;;
9222;SDS011;7557;51.698;3.942;2022-12-18T09:59:48;13.57;;;9.50;;
9222;SDS011;7557;51.698;3.942;2022-12-18T10:02:20;17.13;;;11.07;;
9222;SDS011;7557;51.698;3.942;2022-12-18T10:04:51;12.50;;;9.53;;
9222;SDS011;7557;51.698;3.942;2022-12-18T10:07:35;13.03;;;9.13;;
9222;SDS011;7557;51.698;3.942;2022-12-18T10:10:15;10.50;;;9.10;;
9222;SDS011;7557;51.698;3.942;2022-12-18T10:12:55;13.67;;;9.40;;
9222;SDS011;7557;51.698;3.942;2022-12-18T10:15:30;11.77;;;8.90;;
9222;SDS011;7557;51.698;3.942;2022-12-18T10:18:05;13.83;;;9.53;;
9222;SDS011;7557;51.698;3.942;2022-12-18T10:20:43;13.40;;;9.03;;
9222;SDS011;7557;51.698;3.942;2022-12-18T10:23:15;11.53;;;8.67;;
9222;SDS011;7557;51.698;3.942;2022-12-18T10:25:53;10.00;;;8.17;;
9222;SDS011;7557;51.698;3.942;2022-12-18T10:28:25;13.07;;;9.30;;
9222;SDS011;7557;51.698;3.942;2022-12-18T10:30:56;11.07;;;8.53;;
9222;SDS011;7557;51.698;3.942;2022-12-18T10:33:28;11.13;;;8.67;;
9222;SDS011;7557;51.698;3.942;2022-12-18T10:35:57;10.67;;;9.57;;
9222;SDS011;7557;51.698;3.942;2022-12-18T10:38:26;10.97;;;9.73;;
9222;SDS011;7557;51.698;3.942;2022-12-18T10:40:55;11.93;;;9.27;;
9222;SDS011;7557;51.698;3.942;2022-12-18T10:43:26;12.70;;;9.77;;
9222;SDS011;7557;51.698;3.942;2022-12-18T10:48:52;12.10;;;9.60;;
9222;SDS011;7557;51.698;3.942;2022-12-18T10:51:22;13.60;;;9.63;;
9222;SDS011;7557;51.698;3.942;2022-12-18T10:53:52;11.77;;;9.23;;
9222;SDS011;7557;51.698;3.942;2022-12-18T10:56:23;13.07;;;9.93;;
9222;SDS011;7557;51.698;3.942;2022-12-18T10:58:59;11.87;;;9.07;;
9222;SDS011;7557;51.698;3.942;2022-12-18T11:01:30;12.93;;;9.57;;
9222;SDS011;7557;51.698;3.942;2022-12-18T11:04:16;12.83;;;9.43;;
9222;SDS011;7557;51.698;3.942;2022-12-18T11:06:52;15.00;;;9.63;;
9222;SDS011;7557;51.698;3.942;2022-12-18T11:09:21;16.27;;;11.30;;
9222;SDS011;7557;51.698;3.942;2022-12-18T11:11:50;14.57;;;10.27;;
9222;SDS011;7557;51.698;3.942;2022-12-18T11:14:21;15.50;;;9.83;;
9222;SDS011;7557;51.698;3.942;2022-12-18T11:16:51;12.87;;;10.57;;
9222;SDS011;7557;51.698;3.942;2022-12-18T11:19:23;12.23;;;10.70;;
9222;SDS011;7557;51.698;3.942;2022-12-18T11:21:56;15.47;;;10.53;;
9222;SDS011;7557;51.698;3.942;2022-12-18T11:24:26;13.37;;;9.63;;
9222;SDS011;7557;51.698;3.942;2022-12-18T11:26:57;10.00;;;8.67;;
9222;SDS011;7557;51.698;3.942;2022-12-18T11:29:30;12.47;;;10.20;;
9222;SDS011;7557;51.698;3.942;2022-12-18T11:32:19;11.37;;;9.47;;
9222;SDS011;7557;51.698;3.942;2022-12-18T11:34:56;12.10;;;10.13;;
9222;SDS011;7557;51.698;3.942;2022-12-18T11:37:28;13.50;;;10.33;;
9222;SDS011;7557;51.698;3.942;2022-12-18T11:39:58;18.00;;;10.10;;
9222;SDS011;7557;51.698;3.942;2022-12-18T11:42:32;11.17;;;9.60;;
9222;SDS011;7557;51.698;3.942;2022-12-18T11:45:20;12.13;;;10.23;;
9222;SDS011;7557;51.698;3.942;2022-12-18T11:47:55;12.53;;;9.83;;
9222;SDS011;7557;51.698;3.942;2022-12-18T11:50:26;11.87;;;10.00;;
9222;SDS011;7557;51.698;3.942;2022-12-18T11:52:58;15.10;;;10.47;;
9222;SDS011;7557;51.698;3.942;2022-12-18T11:55:28;13.23;;;10.23;;
9222;SDS011;7557;51.698;3.942;2022-12-18T11:58:04;14.00;;;10.70;;
9222;SDS011;7557;51.698;3.942;2022-12-18T12:00:42;11.53;;;9.97;;
9222;SDS011;7557;51.698;3.942;2022-12-18T12:03:20;13.87;;;10.27;;
9222;SDS011;7557;51.698;3.942;2022-12-18T12:06:02;13.13;;;8.40;;
9222;SDS011;7557;51.698;3.942;2022-12-18T12:08:43;12.57;;;10.57;;
9222;SDS011;7557;51.698;3.942;2022-12-18T12:11:21;10.73;;;9.47;;
9222;SDS011;7557;51.698;3.942;2022-12-18T12:14:01;14.73;;;11.47;;
9222;SDS011;7557;51.698;3.942;2022-12-18T12:16:44;14.50;;;10.77;;
9222;SDS011;7557;51.698;3.942;2022-12-18T12:19:21;11.50;;;10.30;;
9222;SDS011;7557;51.698;3.942;2022-12-18T12:21:59;14.67;;;10.73;;
9222;SDS011;7557;51.698;3.942;2022-12-18T12:24:36;11.13;;;9.23;;
9222;SDS011;7557;51.698;3.942;2022-12-18T12:27:15;11.80;;;8.93;;
9222;SDS011;7557;51.698;3.942;2022-12-18T12:29:50;11.10;;;9.33;;
9222;SDS011;7557;51.698;3.942;2022-12-18T12:32:32;13.97;;;10.03;;
9222;SDS011;7557;51.698;3.942;2022-12-18T12:35:12;11.53;;;8.67;;
9222;SDS011;7557;51.698;3.942;2022-12-18T12:37:52;12.73;;;10.67;;
9222;SDS011;7557;51.698;3.942;2022-12-18T12:40:28;13.40;;;10.07;;
9222;SDS011;7557;51.698;3.942;2022-12-18T12:43:00;17.17;;;10.97;;
9222;SDS011;7557;51.698;3.942;2022-12-18T12:45:41;12.87;;;10.20;;
9222;SDS011;7557;51.698;3.942;2022-12-18T12:48:16;13.77;;;10.70;;
9222;SDS011;7557;51.698;3.942;2022-12-18T12:50:52;10.73;;;9.60;;
9222;SDS011;7557;51.698;3.942;2022-12-18T12:53:23;9.50;;;8.30;;
9222;SDS011;7557;51.698;3.942;2022-12-18T12:55:53;9.37;;;8.50;;
9222;SDS011;7557;51.698;3.942;2022-12-18T12:58:25;13.23;;;10.27;;
9222;SDS011;7557;51.698;3.942;2022-12-18T13:01:02;12.93;;;10.77;;
9222;SDS011;7557;51.698;3.942;2022-12-18T13:03:42;14.40;;;10.67;;
9222;SDS011;7557;51.698;3.942;2022-12-18T13:06:22;13.73;;;10.37;;
9222;SDS011;7557;51.698;3.942;2022-12-18T13:08:58;14.70;;;10.53;;
9222;SDS011;7557;51.698;3.942;2022-12-18T13:11:30;14.40;;;10.80;;
9222;SDS011;7557;51.698;3.942;2022-12-18T13:14:22;14.43;;;10.37;;
9222;SDS011;7557;51.698;3.942;2022-12-18T13:16:51;12.97;;;8.70;;
9222;SDS011;7557;51.698;3.942;2022-12-18T13:19:40;13.87;;;10.87;;
9222;SDS011;7557;51.698;3.942;2022-12-18T13:22:19;15.10;;;10.93;;
9222;SDS011;7557;51.698;3.942;2022-12-18T13:24:48;14.57;;;11.50;;
9222;SDS011;7557;51.698;3.942;2022-12-18T13:36:12;15.97;;;11.43;;
9222;SDS011;7557;51.698;3.942;2022-12-18T13:38:42;18.57;;;11.87;;
9222;SDS011;7557;51.698;3.942;2022-12-18T13:43:53;14.60;;;10.37;;
9222;SDS011;7557;51.698;3.942;2022-12-18T13:46:24;15.87;;;10.77;;
9222;SDS011;7557;51.698;3.942;2022-12-18T13:48:59;14.33;;;11.77;;
9222;SDS011;7557;51.698;3.942;2022-12-18T13:51:31;15.80;;;10.60;;
9222;SDS011;7557;51.698;3.942;2022-12-18T13:54:01;15.87;;;10.90;;
9222;SDS011;7557;51.698;3.942;2022-12-18T13:56:45;15.73;;;11.97;;
9222;SDS011;7557;51.698;3.942;2022-12-18T13:59:15;13.50;;;11.40;;
9222;SDS011;7557;51.698;3.942;2022-12-18T14:01:46;16.27;;;11.33;;
9222;SDS011;7557;51.698;3.942;2022-12-18T14:04:19;16.57;;;11.43;;
9222;SDS011;7557;51.698;3.942;2022-12-18T14:06:51;14.63;;;12.30;;
9222;SDS011;7557;51.698;3.942;2022-12-18T14:09:24;14.47;;;11.53;;
9222;SDS011;7557;51.698;3.942;2022-12-18T14:11:53;13.57;;;11.00;;
9222;SDS011;7557;51.698;3.942;2022-12-18T14:14:44;13.87;;;10.23;;
9222;SDS011;7557;51.698;3.942;2022-12-18T14:17:13;15.70;;;12.47;;
9222;SDS011;7557;51.698;3.942;2022-12-18T14:19:43;15.67;;;11.90;;
9222;SDS011;7557;51.698;3.942;2022-12-18T14:22:15;17.10;;;11.37;;
9222;SDS011;7557;51.698;3.942;2022-12-18T14:24:45;19.30;;;12.20;;
9222;SDS011;7557;51.698;3.942;2022-12-18T14:27:20;16.87;;;12.93;;
9222;SDS011;7557;51.698;3.942;2022-12-18T14:29:50;16.10;;;11.97;;
9222;SDS011;7557;51.698;3.942;2022-12-18T14:32:18;17.07;;;11.57;;
9222;SDS011;7557;51.698;3.942;2022-12-18T14:34:48;15.87;;;12.20;;
9222;SDS011;7557;51.698;3.942;2022-12-18T14:37:20;16.60;;;12.27;;
9222;SDS011;7557;51.698;3.942;2022-12-18T14:39:52;16.73;;;11.67;;
9222;SDS011;7557;51.698;3.942;2022-12-18T14:42:21;16.07;;;12.17;;
9222;SDS011;7557;51.698;3.942;2022-12-18T14:47:53;18.47;;;12.93;;
9222;SDS011;7557;51.698;3.942;2022-12-18T14:50:21;16.03;;;11.60;;
9222;SDS011;7557;51.698;3.942;2022-12-18T14:52:50;18.60;;;13.33;;
9222;SDS011;7557;51.698;3.942;2022-12-18T14:55:18;18.20;;;13.77;;
9222;SDS011;7557;51.698;3.942;2022-12-18T14:57:49;16.70;;;12.93;;
9222;SDS011;7557;51.698;3.942;2022-12-18T15:00:19;17.07;;;13.33;;
9222;SDS011;7557;51.698;3.942;2022-12-18T15:02:49;19.53;;;13.83;;
9222;SDS011;7557;51.698;3.942;2022-12-18T15:05:20;17.67;;;12.43;;
9222;SDS011;7557;51.698;3.942;2022-12-18T15:07:53;17.90;;;12.17;;
9222;SDS011;7557;51.698;3.942;2022-12-18T15:10:22;20.23;;;13.13;;
9222;SDS011;7557;51.698;3.942;2022-12-18T15:13:05;19.50;;;13.90;;
9222;SDS011;7557;51.698;3.942;2022-12-18T15:15:47;15.63;;;11.70;;
9222;SDS011;7557;51.698;3.942;2022-12-18T15:18:16;22.67;;;14.73;;
9222;SDS011;7557;51.698;3.942;2022-12-18T15:20:45;18.70;;;14.37;;
9222;SDS011;7557;51.698;3.942;2022-12-18T15:23:18;21.67;;;14.83;;
9222;SDS011;7557;51.698;3.942;2022-12-18T15:25:48;20.73;;;14.10;;
9222;SDS011;7557;51.698;3.942;2022-12-18T15:28:23;18.60;;;13.13;;
9222;SDS011;7557;51.698;3.942;2022-12-18T15:31:03;17.33;;;14.40;;